sensor_id;sensor_type;location;lat;lon;timestamp;pressure;altitude;pressure_sealevel;temperature;humidity
61906;BME280;47863;55.766;37.672;2023-02-19T00:01:11;98353.09;;;-6.95;78.97
61906;BME280;47863;55.766;37.672;2023-02-19T00:03:38;98355.78;;;-6.97;79.10
61906;BME280;47863;55.766;37.672;2023-02-19T00:06:05;98366.88;;;-6.93;79.37
61906;BME280;47863;55.766;37.672;2023-02-19T00:08:33;98357.63;;;-6.99;79.34
61906;BME280;47863;55.766;37.672;2023-02-19T00:13:29;98314.94;;;-7.27;79.54
61906;BME280;47863;55.766;37.672;2023-02-19T00:15:54;98347.22;;;-6.99;80.08
61906;BME280;47863;55.766;37.672;2023-02-19T00:18:21;98359.81;;;-6.91;79.41
61906;BME280;47863;55.766;37.672;2023-02-19T00:20:46;98321.06;;;-7.12;79.21
61906;BME280;47863;55.766;37.672;2023-02-19T00:23:12;98358.16;;;-6.92;79.33
61906;BME280;47863;55.766;37.672;2023-02-19T00:25:37;98345.03;;;-6.91;78.54
61906;BME280;47863;55.766;37.672;2023-02-19T00:28:03;98354.53;;;-6.90;79.29
61906;BME280;47863;55.766;37.672;2023-02-19T00:30:29;98349.97;;;-6.86;78.80
61906;BME280;47863;55.766;37.672;2023-02-19T00:32:54;98319.06;;;-7.07;79.41
61906;BME280;47863;55.766;37.672;2023-02-19T00:35:20;98345.69;;;-6.87;78.76
61906;BME280;47863;55.766;37.672;2023-02-19T00:37:46;98344.19;;;-6.91;79.01
61906;BME280;47863;55.766;37.672;2023-02-19T00:40:11;98296.56;;;-7.24;79.21
61906;BME280;47863;55.766;37.672;2023-02-19T00:42:38;98344.03;;;-6.88;79.30
61906;BME280;47863;55.766;37.672;2023-02-19T00:45:04;98325.09;;;-7.06;79.27
61906;BME280;47863;55.766;37.672;2023-02-19T00:47:29;98336.97;;;-6.86;79.13
61906;BME280;47863;55.766;37.672;2023-02-19T00:49:55;98311.81;;;-7.02;79.07
61906;BME280;47863;55.766;37.672;2023-02-19T00:52:20;98344.47;;;-6.96;79.37
61906;BME280;47863;55.766;37.672;2023-02-19T00:54:46;98330.69;;;-6.98;79.20
61906;BME280;47863;55.766;37.672;2023-02-19T00:57:11;98334.97;;;-6.97;79.29
61906;BME280;47863;55.766;37.672;2023-02-19T00:59:37;98319.06;;;-7.07;79.21
61906;BME280;47863;55.766;37.672;2023-02-19T01:02:02;98292.88;;;-7.20;79.34
61906;BME280;47863;55.766;37.672;2023-02-19T01:04:28;98295.94;;;-7.13;79.10
61906;BME280;47863;55.766;37.672;2023-02-19T01:06:54;98322.06;;;-6.99;79.56
61906;BME280;47863;55.766;37.672;2023-02-19T01:09:19;98298.47;;;-7.11;79.31
61906;BME280;47863;55.766;37.672;2023-02-19T01:11:45;98306.94;;;-7.08;80.16
61906;BME280;47863;55.766;37.672;2023-02-19T01:14:10;98307.22;;;-7.12;80.33
61906;BME280;47863;55.766;37.672;2023-02-19T01:16:36;98264.94;;;-7.32;80.26
61906;BME280;47863;55.766;37.672;2023-02-19T01:19:02;98277.97;;;-7.32;81.37
61906;BME280;47863;55.766;37.672;2023-02-19T01:21:29;98286.09;;;-7.22;81.99
61906;BME280;47863;55.766;37.672;2023-02-19T01:23:56;98287.94;;;-7.24;82.37
61906;BME280;47863;55.766;37.672;2023-02-19T01:26:27;98278.28;;;-7.22;82.97
61906;BME280;47863;55.766;37.672;2023-02-19T01:28:53;98246.75;;;-7.48;83.13
61906;BME280;47863;55.766;37.672;2023-02-19T01:31:21;98272.41;;;-7.26;83.07
61906;BME280;47863;55.766;37.672;2023-02-19T01:33:53;98287.81;;;-7.23;83.08
61906;BME280;47863;55.766;37.672;2023-02-19T01:36:19;98293.81;;;-7.21;83.34
61906;BME280;47863;55.766;37.672;2023-02-19T01:38:44;98282.81;;;-7.26;83.12
61906;BME280;47863;55.766;37.672;2023-02-19T01:41:13;98284.31;;;-7.22;83.55
61906;BME280;47863;55.766;37.672;2023-02-19T01:44:04;98282.13;;;-7.29;83.98
61906;BME280;47863;55.766;37.672;2023-02-19T01:46:36;98278.78;;;-7.31;83.61
61906;BME280;47863;55.766;37.672;2023-02-19T01:54:32;98275.16;;;-7.29;84.38
61906;BME280;47863;55.766;37.672;2023-02-19T01:57:01;98251.28;;;-7.51;85.05
61906;BME280;47863;55.766;37.672;2023-02-19T01:59:28;98270.31;;;-7.35;84.83
61906;BME280;47863;55.766;37.672;2023-02-19T02:01:53;98278.13;;;-7.35;84.18
61906;BME280;47863;55.766;37.672;2023-02-19T02:04:19;98268.56;;;-7.34;84.83
61906;BME280;47863;55.766;37.672;2023-02-19T02:06:49;98232.84;;;-7.63;84.77
61906;BME280;47863;55.766;37.672;2023-02-19T02:09:17;98259.69;;;-7.46;84.46
61906;BME280;47863;55.766;37.672;2023-02-19T02:12:02;98251.44;;;-7.54;84.16
61906;BME280;47863;55.766;37.672;2023-02-19T02:14:31;98274.84;;;-7.39;84.22
61906;BME280;47863;55.766;37.672;2023-02-19T02:22:36;98277.13;;;-7.32;83.84
61906;BME280;47863;55.766;37.672;2023-02-19T02:28:20;98250.88;;;-7.44;84.34
61906;BME280;47863;55.766;37.672;2023-02-19T02:33:35;98261.84;;;-7.39;84.00
61906;BME280;47863;55.766;37.672;2023-02-19T02:38:35;98229.16;;;-7.59;84.36
61906;BME280;47863;55.766;37.672;2023-02-19T02:41:03;98259.81;;;-7.33;84.00
61906;BME280;47863;55.766;37.672;2023-02-19T02:43:29;98241.03;;;-7.39;84.29
61906;BME280;47863;55.766;37.672;2023-02-19T02:45:55;98252.78;;;-7.31;83.93
61906;BME280;47863;55.766;37.672;2023-02-19T02:51:06;98253.72;;;-7.32;84.45
61906;BME280;47863;55.766;37.672;2023-02-19T02:53:52;98262.16;;;-7.29;84.87
61906;BME280;47863;55.766;37.672;2023-02-19T02:56:43;98227.63;;;-7.47;84.62
61906;BME280;47863;55.766;37.672;2023-02-19T02:59:13;98212.38;;;-7.53;84.63
61906;BME280;47863;55.766;37.672;2023-02-19T03:02:03;98255.97;;;-7.26;84.91
61906;BME280;47863;55.766;37.672;2023-02-19T03:07:35;98227.63;;;-7.47;85.11
61906;BME280;47863;55.766;37.672;2023-02-19T03:10:02;98253.72;;;-7.32;84.71
61906;BME280;47863;55.766;37.672;2023-02-19T03:12:29;98256.41;;;-7.34;85.07
61906;BME280;47863;55.766;37.672;2023-02-19T03:15:15;98245.16;;;-7.34;85.19
61906;BME280;47863;55.766;37.672;2023-02-19T03:18:00;98248.81;;;-7.39;84.55
61906;BME280;47863;55.766;37.672;2023-02-19T03:20:49;98243.75;;;-7.40;85.09
61906;BME280;47863;55.766;37.672;2023-02-19T03:23:16;98240.19;;;-7.39;84.61
61906;BME280;47863;55.766;37.672;2023-02-19T03:25:43;98240.28;;;-7.41;84.68
61906;BME280;47863;55.766;37.672;2023-02-19T03:28:30;98163.38;;;-7.91;84.61
61906;BME280;47863;55.766;37.672;2023-02-19T03:31:19;98224.19;;;-7.47;85.11
61906;BME280;47863;55.766;37.672;2023-02-19T03:33:51;98213.13;;;-7.51;84.58
61906;BME280;47863;55.766;37.672;2023-02-19T03:36:19;98237.50;;;-7.38;84.60
61906;BME280;47863;55.766;37.672;2023-02-19T03:38:57;98227.09;;;-7.38;84.97
61906;BME280;47863;55.766;37.672;2023-02-19T03:42:00;98229.28;;;-7.30;85.03
61906;BME280;47863;55.766;37.672;2023-02-19T03:44:43;98226.00;;;-7.33;84.80
61906;BME280;47863;55.766;37.672;2023-02-19T03:47:14;98229.63;;;-7.36;85.15
61906;BME280;47863;55.766;37.672;2023-02-19T03:50:16;98226.94;;;-7.34;85.20
61906;BME280;47863;55.766;37.672;2023-02-19T03:58:27;98215.97;;;-7.40;87.21
61906;BME280;47863;55.766;37.672;2023-02-19T04:03:56;98221.44;;;-7.44;87.09
61906;BME280;47863;55.766;37.672;2023-02-19T04:06:28;98208.59;;;-7.47;87.11
61906;BME280;47863;55.766;37.672;2023-02-19T04:08:59;98174.72;;;-7.62;86.72
61906;BME280;47863;55.766;37.672;2023-02-19T04:11:26;98205.72;;;-7.43;86.84
61906;BME280;47863;55.766;37.672;2023-02-19T04:14:06;98218.94;;;-7.31;87.10
61906;BME280;47863;55.766;37.672;2023-02-19T04:16:37;98205.78;;;-7.28;86.58
61906;BME280;47863;55.766;37.672;2023-02-19T04:19:09;98210.03;;;-7.27;86.26
61906;BME280;47863;55.766;37.672;2023-02-19T04:21:36;98203.94;;;-7.26;86.76
61906;BME280;47863;55.766;37.672;2023-02-19T04:24:09;98201.88;;;-7.21;86.33
61906;BME280;47863;55.766;37.672;2023-02-19T04:26:36;98209.31;;;-7.15;85.74
61906;BME280;47863;55.766;37.672;2023-02-19T04:29:02;98205.53;;;-7.09;85.66
61906;BME280;47863;55.766;37.672;2023-02-19T04:31:29;98178.75;;;-7.26;85.71
61906;BME280;47863;55.766;37.672;2023-02-19T04:33:56;98170.19;;;-7.28;85.49
61906;BME280;47863;55.766;37.672;2023-02-19T04:36:21;98181.06;;;-7.21;85.98
61906;BME280;47863;55.766;37.672;2023-02-19T04:38:47;98202.75;;;-7.06;85.67
61906;BME280;47863;55.766;37.672;2023-02-19T04:41:12;98190.00;;;-7.11;85.22
61906;BME280;47863;55.766;37.672;2023-02-19T04:43:38;98173.34;;;-7.23;85.63
61906;BME280;47863;55.766;37.672;2023-02-19T04:46:03;98200.81;;;-7.03;86.12
61906;BME280;47863;55.766;37.672;2023-02-19T04:48:29;98184.25;;;-7.16;85.27
61906;BME280;47863;55.766;37.672;2023-02-19T04:50:55;98188.34;;;-7.12;86.00
61906;BME280;47863;55.766;37.672;2023-02-19T04:53:20;98176.44;;;-7.16;85.48
61906;BME280;47863;55.766;37.672;2023-02-19T04:55:46;98173.34;;;-7.23;86.23
61906;BME280;47863;55.766;37.672;2023-02-19T04:58:12;98198.16;;;-7.17;86.22
61906;BME280;47863;55.766;37.672;2023-02-19T05:00:38;98190.94;;;-7.12;86.19
61906;BME280;47863;55.766;37.672;2023-02-19T05:03:03;98154.44;;;-7.41;85.94
61906;BME280;47863;55.766;37.672;2023-02-19T05:05:29;98183.41;;;-7.16;85.94
61906;BME280;47863;55.766;37.672;2023-02-19T05:07:55;98172.50;;;-7.23;86.10
61906;BME280;47863;55.766;37.672;2023-02-19T05:10:20;98181.44;;;-7.13;86.22
61906;BME280;47863;55.766;37.672;2023-02-19T05:12:46;98158.09;;;-7.29;85.88
61906;BME280;47863;55.766;37.672;2023-02-19T05:15:11;98169.84;;;-7.07;86.19
61906;BME280;47863;55.766;37.672;2023-02-19T05:17:37;98155.91;;;-7.21;86.39
61906;BME280;47863;55.766;37.672;2023-02-19T05:20:03;98156.91;;;-7.23;85.91
61906;BME280;47863;55.766;37.672;2023-02-19T05:22:29;98193.25;;;-7.07;86.10
61906;BME280;47863;55.766;37.672;2023-02-19T05:24:55;98124.84;;;-7.38;86.49
61906;BME280;47863;55.766;37.672;2023-02-19T05:27:20;98169.75;;;-7.06;86.46
61906;BME280;47863;55.766;37.672;2023-02-19T05:29:46;98168.09;;;-7.07;86.11
61906;BME280;47863;55.766;37.672;2023-02-19T05:32:12;98161.50;;;-7.12;86.34
61906;BME280;47863;55.766;37.672;2023-02-19T05:34:37;98142.13;;;-7.23;87.07
61906;BME280;47863;55.766;37.672;2023-02-19T05:37:03;98126.56;;;-7.39;86.65
61906;BME280;47863;55.766;37.672;2023-02-19T05:39:28;98166.88;;;-7.01;86.81
61906;BME280;47863;55.766;37.672;2023-02-19T05:41:54;98170.13;;;-6.98;86.51
61906;BME280;47863;55.766;37.672;2023-02-19T05:44:19;98167.28;;;-6.93;86.28
61906;BME280;47863;55.766;37.672;2023-02-19T05:46:45;98159.19;;;-6.88;86.37
61906;BME280;47863;55.766;37.672;2023-02-19T05:49:11;98124.69;;;-7.06;86.01
61906;BME280;47863;55.766;37.672;2023-02-19T05:51:36;98116.50;;;-7.14;86.45
61906;BME280;47863;55.766;37.672;2023-02-19T05:54:02;98158.44;;;-6.90;86.70
61906;BME280;47863;55.766;37.672;2023-02-19T05:56:33;98163.28;;;-6.84;86.92
61906;BME280;47863;55.766;37.672;2023-02-19T05:59:02;98160.75;;;-6.86;87.18
61906;BME280;47863;55.766;37.672;2023-02-19T06:01:29;98109.63;;;-7.15;86.80
61906;BME280;47863;55.766;37.672;2023-02-19T06:03:55;98162.00;;;-6.77;86.48
61906;BME280;47863;55.766;37.672;2023-02-19T06:06:21;98130.47;;;-6.87;86.46
61906;BME280;47863;55.766;37.672;2023-02-19T06:08:50;98111.38;;;-6.87;86.11
61906;BME280;47863;55.766;37.672;2023-02-19T06:11:16;98099.75;;;-6.82;87.04
61906;BME280;47863;55.766;37.672;2023-02-19T06:13:42;98157.88;;;-6.52;86.60
61906;BME280;47863;55.766;37.672;2023-02-19T06:16:09;98142.53;;;-6.57;86.46
61906;BME280;47863;55.766;37.672;2023-02-19T06:18:35;98150.16;;;-6.54;86.80
61906;BME280;47863;55.766;37.672;2023-02-19T06:21:02;98130.72;;;-6.63;86.47
61906;BME280;47863;55.766;37.672;2023-02-19T06:23:28;98110.06;;;-6.66;86.25
61906;BME280;47863;55.766;37.672;2023-02-19T06:25:54;98109.06;;;-6.63;86.09
61906;BME280;47863;55.766;37.672;2023-02-19T06:28:28;98109.69;;;-6.60;86.06
61906;BME280;47863;55.766;37.672;2023-02-19T06:30:58;98156.38;;;-6.28;85.52
61906;BME280;47863;55.766;37.672;2023-02-19T06:33:25;98109.03;;;-6.49;85.60
61906;BME280;47863;55.766;37.672;2023-02-19T06:35:51;98147.03;;;-6.18;85.32
61906;BME280;47863;55.766;37.672;2023-02-19T06:38:17;98107.44;;;-6.37;85.28
61906;BME280;47863;55.766;37.672;2023-02-19T06:40:43;98142.47;;;-6.14;85.63
61906;BME280;47863;55.766;37.672;2023-02-19T06:43:08;98074.34;;;-6.49;85.47
61906;BME280;47863;55.766;37.672;2023-02-19T06:45:34;98108.22;;;-6.22;85.33
61906;BME280;47863;55.766;37.672;2023-02-19T06:48:00;98109.25;;;-6.25;85.45
61906;BME280;47863;55.766;37.672;2023-02-19T06:50:25;98086.28;;;-6.32;85.87
61906;BME280;47863;55.766;37.672;2023-02-19T06:52:51;98135.25;;;-5.96;85.64
61906;BME280;47863;55.766;37.672;2023-02-19T06:55:16;98062.00;;;-6.33;85.51
61906;BME280;47863;55.766;37.672;2023-02-19T06:57:42;98122.94;;;-5.94;85.61
61906;BME280;47863;55.766;37.672;2023-02-19T07:00:09;98131.00;;;-5.84;85.38
61906;BME280;47863;55.766;37.672;2023-02-19T07:02:34;98112.06;;;-6.01;85.09
61906;BME280;47863;55.766;37.672;2023-02-19T07:05:00;98103.13;;;-5.96;85.69
61906;BME280;47863;55.766;37.672;2023-02-19T07:07:25;98130.13;;;-5.85;85.04
61906;BME280;47863;55.766;37.672;2023-02-19T07:09:51;98106.88;;;-5.88;85.31
61906;BME280;47863;55.766;37.672;2023-02-19T07:12:17;98120.34;;;-5.81;85.05
61906;BME280;47863;55.766;37.672;2023-02-19T07:14:42;98121.53;;;-5.72;85.63
61906;BME280;47863;55.766;37.672;2023-02-19T07:17:08;98114.56;;;-5.59;85.37
61906;BME280;47863;55.766;37.672;2023-02-19T07:19:33;98043.16;;;-5.96;85.27
61906;BME280;47863;55.766;37.672;2023-02-19T07:21:59;98059.97;;;-5.75;85.09
61906;BME280;47863;55.766;37.672;2023-02-19T07:24:24;98098.41;;;-5.51;85.23
61906;BME280;47863;55.766;37.672;2023-02-19T07:26:50;98077.75;;;-5.54;84.45
61906;BME280;47863;55.766;37.672;2023-02-19T07:29:16;98101.56;;;-5.33;85.32
61906;BME280;47863;55.766;37.672;2023-02-19T07:31:42;98090.41;;;-5.23;84.94
61906;BME280;47863;55.766;37.672;2023-02-19T07:34:07;98097.19;;;-5.20;84.95
61906;BME280;47863;55.766;37.672;2023-02-19T07:36:33;98050.22;;;-5.33;84.58
61906;BME280;47863;55.766;37.672;2023-02-19T07:38:59;98085.06;;;-5.08;85.34
61906;BME280;47863;55.766;37.672;2023-02-19T07:41:26;98097.28;;;-5.22;85.38
61906;BME280;47863;55.766;37.672;2023-02-19T07:43:52;98092.47;;;-5.28;85.34
61906;BME280;47863;55.766;37.672;2023-02-19T07:46:18;98071.63;;;-5.41;85.37
61906;BME280;47863;55.766;37.672;2023-02-19T07:48:44;98080.06;;;-5.37;86.04
61906;BME280;47863;55.766;37.672;2023-02-19T07:51:12;98089.03;;;-5.41;85.78
61906;BME280;47863;55.766;37.672;2023-02-19T07:53:40;98059.91;;;-5.61;85.85
61906;BME280;47863;55.766;37.672;2023-02-19T07:56:06;98040.16;;;-5.65;85.71
61906;BME280;47863;55.766;37.672;2023-02-19T07:58:33;98078.91;;;-5.46;85.55
61906;BME280;47863;55.766;37.672;2023-02-19T08:01:18;98082.25;;;-5.44;85.50
61906;BME280;47863;55.766;37.672;2023-02-19T08:04:04;98079.44;;;-5.41;85.77
61906;BME280;47863;55.766;37.672;2023-02-19T08:06:30;98053.22;;;-5.52;86.03
61906;BME280;47863;55.766;37.672;2023-02-19T08:08:55;98068.88;;;-5.39;86.38
61906;BME280;47863;55.766;37.672;2023-02-19T08:11:22;98037.97;;;-5.58;86.17
61906;BME280;47863;55.766;37.672;2023-02-19T08:14:06;98069.00;;;-5.41;85.72
61906;BME280;47863;55.766;37.672;2023-02-19T08:16:32;98065.25;;;-5.36;86.14
61906;BME280;47863;55.766;37.672;2023-02-19T08:18:57;98071.94;;;-5.32;85.69
61906;BME280;47863;55.766;37.672;2023-02-19T08:21:23;98075.81;;;-5.25;85.94
61906;BME280;47863;55.766;37.672;2023-02-19T08:23:48;98064.09;;;-5.32;86.16
61906;BME280;47863;55.766;37.672;2023-02-19T08:26:14;98054.59;;;-5.33;85.35
61906;BME280;47863;55.766;37.672;2023-02-19T08:28:41;98067.75;;;-5.22;86.35
61906;BME280;47863;55.766;37.672;2023-02-19T08:31:09;98050.19;;;-5.20;86.44
61906;BME280;47863;55.766;37.672;2023-02-19T08:33:35;98074.66;;;-5.21;86.13
61906;BME280;47863;55.766;37.672;2023-02-19T08:36:05;98066.59;;;-5.31;85.57
61906;BME280;47863;55.766;37.672;2023-02-19T08:38:32;98053.13;;;-5.38;86.69
61906;BME280;47863;55.766;37.672;2023-02-19T08:41:05;98056.03;;;-5.29;86.34
61906;BME280;47863;55.766;37.672;2023-02-19T08:43:31;98061.59;;;-5.21;86.51
61906;BME280;47863;55.766;37.672;2023-02-19T08:45:57;98017.22;;;-5.34;86.21
61906;BME280;47863;55.766;37.672;2023-02-19T08:48:22;98055.00;;;-5.01;86.16
61906;BME280;47863;55.766;37.672;2023-02-19T08:51:14;97998.75;;;-5.31;85.76
61906;BME280;47863;55.766;37.672;2023-02-19T08:53:40;98050.41;;;-4.97;85.81
61906;BME280;47863;55.766;37.672;2023-02-19T08:56:13;98062.63;;;-4.98;85.87
61906;BME280;47863;55.766;37.672;2023-02-19T08:58:39;98011.16;;;-5.34;86.13
61906;BME280;47863;55.766;37.672;2023-02-19T09:01:14;98039.75;;;-5.20;86.33
61906;BME280;47863;55.766;37.672;2023-02-19T09:03:42;98039.03;;;-5.22;86.61
61906;BME280;47863;55.766;37.672;2023-02-19T09:06:12;97999.38;;;-5.40;86.10
61906;BME280;47863;55.766;37.672;2023-02-19T09:08:39;98032.66;;;-5.18;86.40
61906;BME280;47863;55.766;37.672;2023-02-19T09:11:04;98027.25;;;-5.15;86.70
61906;BME280;47863;55.766;37.672;2023-02-19T09:13:31;98035.28;;;-5.05;86.74
61906;BME280;47863;55.766;37.672;2023-02-19T09:15:57;97972.94;;;-5.35;85.53
61906;BME280;47863;55.766;37.672;2023-02-19T09:18:23;98029.09;;;-4.91;85.91
61906;BME280;47863;55.766;37.672;2023-02-19T09:20:49;97989.09;;;-5.18;86.40
61906;BME280;47863;55.766;37.672;2023-02-19T09:23:15;98013.22;;;-5.01;86.12
61906;BME280;47863;55.766;37.672;2023-02-19T09:25:40;98007.69;;;-4.96;86.19
61906;BME280;47863;55.766;37.672;2023-02-19T09:28:09;98025.09;;;-4.84;86.46
61906;BME280;47863;55.766;37.672;2023-02-19T09:30:37;98011.72;;;-4.80;86.85
61906;BME280;47863;55.766;37.672;2023-02-19T09:33:04;97989.09;;;-5.05;86.82
61906;BME280;47863;55.766;37.672;2023-02-19T09:35:30;97958.25;;;-5.36;87.00
61906;BME280;47863;55.766;37.672;2023-02-19T09:37:58;97953.31;;;-5.41;86.77
61906;BME280;47863;55.766;37.672;2023-02-19T09:40:24;97996.66;;;-5.13;87.36
61906;BME280;47863;55.766;37.672;2023-02-19T09:42:50;97976.28;;;-5.21;86.76
61906;BME280;47863;55.766;37.672;2023-02-19T09:45:21;97963.56;;;-5.25;86.93
61906;BME280;47863;55.766;37.672;2023-02-19T09:47:49;97914.75;;;-5.49;87.03
61906;BME280;47863;55.766;37.672;2023-02-19T09:50:20;97980.22;;;-5.02;86.88
61906;BME280;47863;55.766;37.672;2023-02-19T09:52:55;97967.25;;;-5.04;86.31
61906;BME280;47863;55.766;37.672;2023-02-19T09:55:38;98000.28;;;-4.66;86.66
61906;BME280;47863;55.766;37.672;2023-02-19T10:00:42;97951.13;;;-4.85;86.05
61906;BME280;47863;55.766;37.672;2023-02-19T10:03:13;97995.63;;;-4.49;85.76
61906;BME280;47863;55.766;37.672;2023-02-19T10:05:41;97836.53;;;-5.38;85.89
61906;BME280;47863;55.766;37.672;2023-02-19T10:08:11;97872.81;;;-5.22;84.86
61906;BME280;47863;55.766;37.672;2023-02-19T10:10:39;97990.19;;;-4.46;84.52
61906;BME280;47863;55.766;37.672;2023-02-19T10:15:38;97910.69;;;-5.03;85.26
61906;BME280;47863;55.766;37.672;2023-02-19T10:18:05;97980.94;;;-4.63;85.48
61906;BME280;47863;55.766;37.672;2023-02-19T10:20:32;97816.16;;;-5.69;85.33
61906;BME280;47863;55.766;37.672;2023-02-19T10:25:27;97984.38;;;-4.63;86.85
61906;BME280;47863;55.766;37.672;2023-02-19T10:27:57;97787.06;;;-6.00;86.74
61906;BME280;47863;55.766;37.672;2023-02-19T10:30:24;97993.72;;;-4.71;86.69
61906;BME280;47863;55.766;37.672;2023-02-19T10:33:12;97989.03;;;-4.79;87.64
61906;BME280;47863;55.766;37.672;2023-02-19T10:38:31;97983.81;;;-4.79;87.53
61906;BME280;47863;55.766;37.672;2023-02-19T10:41:04;97984.31;;;-4.74;87.04
61906;BME280;47863;55.766;37.672;2023-02-19T10:43:35;97945.00;;;-4.96;87.88
61906;BME280;47863;55.766;37.672;2023-02-19T10:46:16;97974.28;;;-4.67;88.29
61906;BME280;47863;55.766;37.672;2023-02-19T10:51:39;97985.44;;;-4.41;87.73
61906;BME280;47863;55.766;37.672;2023-02-19T10:54:24;97991.06;;;-4.34;86.44
61906;BME280;47863;55.766;37.672;2023-02-19T10:56:51;97965.97;;;-4.37;86.75
61906;BME280;47863;55.766;37.672;2023-02-19T11:04:20;97975.53;;;-4.01;86.77
61906;BME280;47863;55.766;37.672;2023-02-19T11:06:46;97970.16;;;-3.99;87.41
61906;BME280;47863;55.766;37.672;2023-02-19T11:09:28;97974.56;;;-4.00;86.99
61906;BME280;47863;55.766;37.672;2023-02-19T11:12:00;97953.63;;;-4.00;87.00
61906;BME280;47863;55.766;37.672;2023-02-19T11:14:30;97971.53;;;-3.82;87.73
61906;BME280;47863;55.766;37.672;2023-02-19T11:16:58;97969.13;;;-3.85;87.34
61906;BME280;47863;55.766;37.672;2023-02-19T11:19:28;97962.00;;;-3.94;86.50
61906;BME280;47863;55.766;37.672;2023-02-19T11:21:54;97920.47;;;-4.10;87.21
61906;BME280;47863;55.766;37.672;2023-02-19T11:24:35;97963.31;;;-3.89;87.59
61906;BME280;47863;55.766;37.672;2023-02-19T11:27:06;97964.03;;;-3.87;87.65
61906;BME280;47863;55.766;37.672;2023-02-19T11:29:40;97965.81;;;-3.76;86.66
61906;BME280;47863;55.766;37.672;2023-02-19T11:32:25;97961.00;;;-3.47;86.85
61906;BME280;47863;55.766;37.672;2023-02-19T11:35:03;97970.78;;;-3.37;86.72
61906;BME280;47863;55.766;37.672;2023-02-19T11:37:52;97966.59;;;-3.40;87.40
61906;BME280;47863;55.766;37.672;2023-02-19T11:40:21;97934.91;;;-3.60;87.37
61906;BME280;47863;55.766;37.672;2023-02-19T11:43:27;97938.47;;;-3.72;86.16
61906;BME280;47863;55.766;37.672;2023-02-19T11:51:38;97953.06;;;-3.92;87.45
61906;BME280;47863;55.766;37.672;2023-02-19T11:56:47;97934.72;;;-4.03;87.22
61906;BME280;47863;55.766;37.672;2023-02-19T11:59:29;97946.03;;;-3.91;87.13
61906;BME280;47863;55.766;37.672;2023-02-19T12:17:22;97911.78;;;-4.46;88.55
61906;BME280;47863;55.766;37.672;2023-02-19T12:22:32;97948.50;;;-4.36;88.24
61906;BME280;47863;55.766;37.672;2023-02-19T12:28:09;97950.38;;;-4.50;85.46
61906;BME280;47863;55.766;37.672;2023-02-19T12:36:36;97941.81;;;-4.52;87.97
61906;BME280;47863;55.766;37.672;2023-02-19T12:42:14;97944.56;;;-4.66;87.96
61906;BME280;47863;55.766;37.672;2023-02-19T12:44:50;97949.22;;;-4.70;88.60
61906;BME280;47863;55.766;37.672;2023-02-19T12:47:20;97946.81;;;-4.73;89.18
61906;BME280;47863;55.766;37.672;2023-02-19T12:50:22;97938.84;;;-4.95;88.41
61906;BME280;47863;55.766;37.672;2023-02-19T12:52:58;97957.41;;;-4.87;90.17
61906;BME280;47863;55.766;37.672;2023-02-19T12:55:34;97947.41;;;-4.93;90.97
61906;BME280;47863;55.766;37.672;2023-02-19T12:58:03;97954.38;;;-4.94;91.24
61906;BME280;47863;55.766;37.672;2023-02-19T13:00:42;97954.94;;;-5.02;90.28
61906;BME280;47863;55.766;37.672;2023-02-19T13:03:46;97960.38;;;-5.05;89.59
61906;BME280;47863;55.766;37.672;2023-02-19T13:06:40;97933.47;;;-5.18;89.73
61906;BME280;47863;55.766;37.672;2023-02-19T13:09:35;97957.78;;;-5.05;90.22
61906;BME280;47863;55.766;37.672;2023-02-19T13:14:48;97953.09;;;-5.12;89.27
61906;BME280;47863;55.766;37.672;2023-02-19T13:19:44;97940.56;;;-5.20;89.64
61906;BME280;47863;55.766;37.672;2023-02-19T13:22:29;97946.53;;;-5.18;89.31
61906;BME280;47863;55.766;37.672;2023-02-19T13:25:16;97950.53;;;-5.25;89.73
61906;BME280;47863;55.766;37.672;2023-02-19T13:27:50;97951.44;;;-5.26;89.51
61906;BME280;47863;55.766;37.672;2023-02-19T13:30:28;97958.56;;;-5.28;89.60
61906;BME280;47863;55.766;37.672;2023-02-19T13:36:02;97967.53;;;-5.32;90.85
61906;BME280;47863;55.766;37.672;2023-02-19T13:38:32;97937.28;;;-5.48;91.41
61906;BME280;47863;55.766;37.672;2023-02-19T13:41:00;97951.78;;;-5.44;91.66
61906;BME280;47863;55.766;37.672;2023-02-19T13:43:31;97957.63;;;-5.53;90.71
61906;BME280;47863;55.766;37.672;2023-02-19T13:46:07;97936.03;;;-5.68;90.48
61906;BME280;47863;55.766;37.672;2023-02-19T13:48:37;97940.41;;;-5.55;90.53
61906;BME280;47863;55.766;37.672;2023-02-19T14:19:55;97932.72;;;-5.70;90.62
61906;BME280;47863;55.766;37.672;2023-02-19T14:33:24;97919.13;;;-5.75;91.37
61906;BME280;47863;55.766;37.672;2023-02-19T14:38:51;97920.72;;;-5.72;90.47
61906;BME280;47863;55.766;37.672;2023-02-19T14:41:19;97916.09;;;-5.69;91.55
61906;BME280;47863;55.766;37.672;2023-02-19T14:43:48;97902.34;;;-5.84;91.55
61906;BME280;47863;55.766;37.672;2023-02-19T14:46:28;97924.34;;;-5.75;91.46
61906;BME280;47863;55.766;37.672;2023-02-19T14:49:00;97918.50;;;-5.79;90.27
61906;BME280;47863;55.766;37.672;2023-02-19T14:51:40;97919.34;;;-5.78;90.57
61906;BME280;47863;55.766;37.672;2023-02-19T14:54:45;97913.28;;;-5.79;90.04
61906;BME280;47863;55.766;37.672;2023-02-19T14:57:19;97892.25;;;-5.88;90.56
61906;BME280;47863;55.766;37.672;2023-02-19T14:59:54;97916.66;;;-5.76;90.43
61906;BME280;47863;55.766;37.672;2023-02-19T15:02:21;97871.50;;;-6.03;90.09
61906;BME280;47863;55.766;37.672;2023-02-19T15:04:50;97921.25;;;-5.80;90.32
61906;BME280;47863;55.766;37.672;2023-02-19T15:07:29;97905.88;;;-5.85;90.61
61906;BME280;47863;55.766;37.672;2023-02-19T15:10:00;97912.47;;;-5.79;91.97
61906;BME280;47863;55.766;37.672;2023-02-19T15:12:38;97919.78;;;-5.84;90.93
61906;BME280;47863;55.766;37.672;2023-02-19T15:15:25;97894.00;;;-5.89;92.77
61906;BME280;47863;55.766;37.672;2023-02-19T15:17:53;97905.88;;;-5.85;92.73
61906;BME280;47863;55.766;37.672;2023-02-19T15:20:23;97910.59;;;-5.90;92.96
61906;BME280;47863;55.766;37.672;2023-02-19T15:22:51;97904.88;;;-5.95;92.37
61906;BME280;47863;55.766;37.672;2023-02-19T15:25:21;97867.75;;;-6.24;92.13
61906;BME280;47863;55.766;37.672;2023-02-19T15:27:48;97859.94;;;-6.24;91.80
61906;BME280;47863;55.766;37.672;2023-02-19T15:30:26;97879.34;;;-6.15;92.16